Latest METARs, TAFs and NOTAMs for MMPR


---------------------------------------------------------------------------
	(OBSERVATIONS)
MMPR 171349Z 00000KT 15SM  SKC 19/19 A2993 RMK SC=
MMPR 171244Z 00000KT 15SM  SKC 20/20 A2990 RMK SC=
MMPR 171149Z 04002KT 12SM  FEW025 21/21 A2989  RMK SLP118 52001
    908 8/500=
---------------------------------------------------------------------------
	(TERMINAL AREA FORECAST)
AMD MMPR 171330Z 1713/1818 04005KT P6SM SKC TX26/1721Z
    TN21/1812Z
    FM171800 24010KT P6SM SKC
    FM180300 00000KT P6SM SKC
    FM181200 04005KT P6SM SCT025=
---------------------------------------------------------------------------
	(NOTAMS)


MMPR A0779/19 CHANGED GRADE OF TURBOSINE FUEL FROM JET A-1 TO
    JET A. 12 FEB 02:02 2019 UNTIL PERM. CREATED: 12 FEB 02:06
    2019

MMPR A0811/19 CD OPR IN FREQ 121.9 MHZ. 12 FEB 14:57 2019 UNTIL
    07 APR 23:00 2019. CREATED: 12 FEB 15:01 2019

MMPR A2673/18 CHANGED ALT AWY UJ-14 TO 7000 FT BTN D-15 TIL D-20
    RDL 293 DEG FM VOR/DME/PVR PUBLISHED IN CHART MMPR-IAC-2
    AMDT AIRAC 06/18 DATE 24-MAY-2018 OF MEXICO AIP. 24 MAY 12:00
    2018 UNTIL PERM. CREATED: 21 MAY 16:15 2018

MMPR A2674/18 ALT IS ESTABLISHED AWY UJ-48 TO 70O0 FT BTN D-17
    TIL D-25 RDL 290 DEG FM VOR/DME/PVR IN CHART MMPR-IAC-5 AMDT
    AIRAC 06/2018 DATE 24-MAY-2018 OF MEXICO AIP. 24 MAY 12:00
    2018 UNTIL PERM. CREATED: 21 MAY 16:34 2018

---------------------------------------------------------------------------